YRQ weather

Trois-Rivières Airport
Trois-Rivières, Quebec, Canada

Public forecast

Using degrees Celsius for public forecast. Weather courtesy of forecast.io.

Current aviation weather report (METAR) for Trois-Rivières Airport

Retrieved 2019/10/16 06:35 UTC (0 seconds ago):

CYRQ 160635Z AUTO 07002KT 9SM OVC080 05/04 A3001 RMK SLP166

Aviation forecast (TAF) for Trois-Rivières Airport

Retrieved 2019/10/16 08:00 UTC (0 seconds ago):

TAF CYRQ 160738Z 1608/1620 VRB03KT P6SM BKN060 TEMPO 1608/1611 P6SM -RA FM161100 04005KT P6SM BKN150 FM161500 08010KT P6SM BKN120 BECMG 1617/1619 12010G20KT RMK FCST BASED ON AUTO OBS NXT FCST BY 161400Z